Decoded Metar for YSSY (SYDNEY in AUSTRALIA) (IATA:SYD) | Meteo·Mobile Aviation Weather
aviador You're here:

YSSY Decoded Metar

SYDNEY in AUSTRALIA
Report Time2018-11-18 02:00:00
UTC Time2018-11-18 02:25:13
Flight Rules vfr VFR
Wind130° at 13 kt
W.Decomp.*RWY 16: 9.7 kt HW 8.7 kt LCW
RWY 07: 8.7 kt HW 9.7 kt RCW
W.Rank130° ranks 23
Current wind is above 130° avg. (10.2)
Visibility9999 m
Phenomena:N/A
Clouds:Few 040 Hf
Scattered 060 Hf
Expected CloudBase > 4,400 ft AGL from Temp-Dew spread
CeilingNone
Temp22°C (ISA +7)
Dew Point11°C (50% RH)
AAT17.7°C
QNH1023 hPa
Density Alt669 ft
Elevation10 ft
Report Wrong Elevation
Raw Report
METAR YSSY 180200Z 13013KT 9999 FEW040 SCT060 22/11 Q1023
NOSIG=

Extra information for YSSY:More info

Metar Taf Metar & Taf Last 4 Metars F.Rules Stats Wind Profile Meteogram Temp Stats Airport Information Weather charts Add Link Nearby VenuesMetar ALERT Operation Metar Decoded Social comments